CDT,Max TemperatureF,Mean TemperatureF,Min TemperatureF,Max Dew PointF,MeanDew PointF,Min DewpointF,Max Humidity, Mean Humidity, Min Humidity, Max Sea Level PressureIn, Mean Sea Level PressureIn, Min Sea Level PressureIn, Max VisibilityMiles, Mean VisibilityMiles, Min VisibilityMiles, Max Wind SpeedMPH, Mean Wind SpeedMPH, Max Gust SpeedMPH,PrecipitationIn, CloudCover, Events, WindDirDegrees
2013-5-1,71,58,44,50,44,34,77,54,32,30.33,30.12,29.89,10,10,10,21,7,24,0.00,2,,34
2013-5-2,48,42,33,34,33,32,93,70,58,30.35,30.32,30.28,10,10,5,22,14,30,0.04,6,Rain-Thunderstorm,11
2013-5-3,44,38,33,41,36,32,93,89,81,30.29,30.16,30.08,10,10,4,17,11,23,0.12,8,Rain,30
2013-5-4,73,58,42,48,43,39,93,71,33,30.11,30.08,30.05,10,10,10,13,7,,0.00,1,,57
2013-5-5,71,58,44,48,41,37,88,61,29,30.14,30.09,30.05,10,10,10,10,6,,0.00,0,,66
2013-5-6,75,60,44,46,39,32,93,53,22,30.12,30.06,30.01,10,10,3,9,4,,0.00,0,,68
2013-5-7,78,60,42,45,39,30,93,49,17,30.10,30.05,30.00,10,9,2,10,2,,0.00,0,,107
2013-5-8,80,62,44,46,41,32,93,46,17,30.05,30.00,29.96,10,10,5,8,2,,0.00,1,,109
2013-5-9,64,53,42,52,45,39,93,71,49,30.04,29.99,29.94,10,9,2,26,7,33,0.38,6,Rain,56
2013-5-10,60,48,37,45,38,34,93,76,45,30.04,29.99,29.93,10,10,10,20,14,28,0.04,5,Rain,65
2013-5-11,50,44,37,45,34,21,100,72,34,29.98,29.88,29.77,10,8,0,21,7,33,0.04,6,Fog-Rain,304
2013-5-12,51,42,33,30,23,18,81,51,26,30.13,30.06,29.99,10,10,10,20,10,25,0.00,4,,328
2013-5-13,60,44,28,34,25,18,87,51,22,30.17,30.08,29.91,10,10,10,13,3,16,0.00,2,Rain,200
2013-5-14,77,60,42,50,40,32,77,55,31,29.90,29.70,29.47,10,10,10,13,4,17,0.00,1,,110
2013-5-15,78,66,53,48,40,30,77,41,18,29.82,29.73,29.48,10,10,10,14,7,25,0.00,0,,279
2013-5-16,75,60,46,46,42,37,87,51,29,30.08,29.94,29.82,10,10,2,14,5,16,0.00,1,,97
2013-5-17,55,52,48,48,43,39,82,72,58,30.17,30.12,30.06,10,10,5,13,8,,0.01,4,Rain,78
2013-5-18,77,65,53,59,52,46,94,69,53,30.13,30.05,29.95,10,9,4,12,7,,0.00,4,,111
2013-5-19,82,68,55,63,59,54,94,70,42,29.97,29.87,29.75,10,8,0,14,4,22,0.00,1,Fog,127
2013-5-20,82,71,60,61,57,52,94,62,35,29.79,29.70,29.65,10,9,3,13,7,22,0.05,1,Rain-Thunderstorm,166
2013-5-21,77,70,64,64,58,52,88,67,41,29.69,29.63,29.59,10,10,5,16,6,25,0.02,4,Rain-Thunderstorm,218
2013-5-22,64,58,53,59,55,50,100,91,73,29.85,29.73,29.68,10,8,0,21,6,26,0.01,7,Fog-Rain,46
2013-5-23,59,50,42,50,36,30,94,62,34,30.34,30.12,29.86,10,10,10,21,15,29,0.00,3,Rain,15
2013-5-24,62,48,33,39,33,30,93,57,34,30.47,30.38,30.32,10,10,7,9,4,,0.02,0,,75
2013-5-25,64,50,37,41,36,34,93,56,32,30.43,30.36,30.32,10,10,10,12,3,,0.00,0,,108
2013-5-26,66,52,39,43,39,32,100,61,32,30.35,30.29,30.21,10,10,2,13,4,17,0.00,0,,89
2013-5-27,64,56,48,50,43,36,94,61,45,30.22,30.08,29.95,10,10,10,16,6,20,0.00,5,Rain,105
2013-5-28,57,54,51,54,52,48,94,92,82,29.95,29.82,29.75,10,7,0,10,3,,0.01,8,Fog-Rain,88
2013-5-29,82,68,55,64,59,54,100,81,48,29.90,29.85,29.79,10,6,0,16,2,29,0.01,6,Fog-Rain-Thunderstorm,158
2013-5-30,86,73,60,66,64,59,100,75,45,29.89,29.80,29.71,10,9,0,16,5,28,0.00,3,Fog-Rain-Thunderstorm,180
2013-5-31,78,70,62,63,61,59,94,72,51,29.77,29.72,29.67,10,10,10,13,7,20,0.00,4,Rain,188